TAF Text Data
IDs:
Format:
Raw Decoded Include METAR

Data at: 1251 UTC 10 Jul 2020

KHIE 101128Z 1012/1112 15005KT P6SM SCT200
  FM101900 15009G16KT P6SM SCT050 BKN200
  FM110100 14010G18KT P6SM -SHRA BKN040
  FM110700 12008KT 5SM -SHRA BR OVC025